sensor_id;sensor_type;location;lat;lon;timestamp;pressure;altitude;pressure_sealevel;temperature;humidity
68873;BME280;55907;50.806;12.882;2022-10-15T00:01:48;967.7;;;14.3;86.2
68873;BME280;55907;50.806;12.882;2022-10-15T00:07:51;967.6;;;14.3;87.1
68873;BME280;55907;50.806;12.882;2022-10-15T00:10:52;967.6;;;14.2;87.4
68873;BME280;55907;50.806;12.882;2022-10-15T00:13:56;967.5;;;14.2;87.7
68873;BME280;55907;50.806;12.882;2022-10-15T00:16:55;967.5;;;14.2;87.5
68873;BME280;55907;50.806;12.882;2022-10-15T00:19:57;967.4;;;14.1;87.5
68873;BME280;55907;50.806;12.882;2022-10-15T00:22:58;967.4;;;14.2;87.5
68873;BME280;55907;50.806;12.882;2022-10-15T00:26:01;967.4;;;14.2;87.4
68873;BME280;55907;50.806;12.882;2022-10-15T00:29:02;967.4;;;14.1;87.2
68873;BME280;55907;50.806;12.882;2022-10-15T00:32:03;967.4;;;14.1;87.2
68873;BME280;55907;50.806;12.882;2022-10-15T00:35:05;967.4;;;14.1;87.3
68873;BME280;55907;50.806;12.882;2022-10-15T00:38:06;967.4;;;14.1;87.3
68873;BME280;55907;50.806;12.882;2022-10-15T00:47:13;967.3;;;14.1;86.8
68873;BME280;55907;50.806;12.882;2022-10-15T00:50:14;967.2;;;14.1;87.0
68873;BME280;55907;50.806;12.882;2022-10-15T00:53:13;967.2;;;14.1;86.3
68873;BME280;55907;50.806;12.882;2022-10-15T00:56:16;967.1;;;14.1;86.3
68873;BME280;55907;50.806;12.882;2022-10-15T00:59:17;967.1;;;14.1;86.0
68873;BME280;55907;50.806;12.882;2022-10-15T01:02:18;967.1;;;14.2;85.7
68873;BME280;55907;50.806;12.882;2022-10-15T01:05:20;967.2;;;14.2;85.8
68873;BME280;55907;50.806;12.882;2022-10-15T01:08:21;967.2;;;14.2;85.3
68873;BME280;55907;50.806;12.882;2022-10-15T01:14:33;967.1;;;14.4;84.6
68873;BME280;55907;50.806;12.882;2022-10-15T01:17:28;967.0;;;14.4;84.3
68873;BME280;55907;50.806;12.882;2022-10-15T01:26:41;966.9;;;14.4;84.0
68873;BME280;55907;50.806;12.882;2022-10-15T01:29:42;966.9;;;14.4;83.9
68873;BME280;55907;50.806;12.882;2022-10-15T01:35:43;966.9;;;14.4;83.8
68873;BME280;55907;50.806;12.882;2022-10-15T01:38:45;966.9;;;14.5;83.8
68873;BME280;55907;50.806;12.882;2022-10-15T01:41:40;966.9;;;14.4;83.5
68873;BME280;55907;50.806;12.882;2022-10-15T01:44:41;967.0;;;14.4;83.5
68873;BME280;55907;50.806;12.882;2022-10-15T01:47:43;966.9;;;14.4;83.5
68873;BME280;55907;50.806;12.882;2022-10-15T01:50:44;966.8;;;14.5;83.3
68873;BME280;55907;50.806;12.882;2022-10-15T01:53:43;966.8;;;14.5;83.0
68873;BME280;55907;50.806;12.882;2022-10-15T01:56:45;966.8;;;14.5;83.1
68873;BME280;55907;50.806;12.882;2022-10-15T01:59:45;966.9;;;14.5;83.2
68873;BME280;55907;50.806;12.882;2022-10-15T02:02:47;966.9;;;14.5;82.8
68873;BME280;55907;50.806;12.882;2022-10-15T02:05:52;966.8;;;14.5;83.0
68873;BME280;55907;50.806;12.882;2022-10-15T02:08:57;966.8;;;14.5;83.0
68873;BME280;55907;50.806;12.882;2022-10-15T02:11:59;966.8;;;14.4;83.2
68873;BME280;55907;50.806;12.882;2022-10-15T02:14:58;966.8;;;14.4;83.0
68873;BME280;55907;50.806;12.882;2022-10-15T02:18:00;966.7;;;14.5;82.8
68873;BME280;55907;50.806;12.882;2022-10-15T02:20:57;966.7;;;14.4;82.9
68873;BME280;55907;50.806;12.882;2022-10-15T02:24:03;966.7;;;14.4;82.8
68873;BME280;55907;50.806;12.882;2022-10-15T02:27:00;966.7;;;14.4;82.9
68873;BME280;55907;50.806;12.882;2022-10-15T02:30:02;966.6;;;14.5;83.6
68873;BME280;55907;50.806;12.882;2022-10-15T02:33:02;966.6;;;14.5;82.9
68873;BME280;55907;50.806;12.882;2022-10-15T02:36:04;966.6;;;14.5;83.4
68873;BME280;55907;50.806;12.882;2022-10-15T02:39:05;966.4;;;14.6;83.3
68873;BME280;55907;50.806;12.882;2022-10-15T02:42:06;966.4;;;14.6;82.7
68873;BME280;55907;50.806;12.882;2022-10-15T02:45:08;966.4;;;14.6;82.9
68873;BME280;55907;50.806;12.882;2022-10-15T02:48:09;966.5;;;14.6;82.3
68873;BME280;55907;50.806;12.882;2022-10-15T02:51:10;966.3;;;14.6;82.5
68873;BME280;55907;50.806;12.882;2022-10-15T02:54:12;966.3;;;14.6;82.6
68873;BME280;55907;50.806;12.882;2022-10-15T02:57:13;966.3;;;14.6;82.6
68873;BME280;55907;50.806;12.882;2022-10-15T03:00:15;966.3;;;14.6;82.5
68873;BME280;55907;50.806;12.882;2022-10-15T03:03:16;966.3;;;14.6;83.0
68873;BME280;55907;50.806;12.882;2022-10-15T03:06:18;966.3;;;14.6;82.2
68873;BME280;55907;50.806;12.882;2022-10-15T03:09:19;966.2;;;14.6;82.8
68873;BME280;55907;50.806;12.882;2022-10-15T03:12:21;966.2;;;14.6;82.2
68873;BME280;55907;50.806;12.882;2022-10-15T03:15:22;966.2;;;14.7;82.2
68873;BME280;55907;50.806;12.882;2022-10-15T03:18:24;966.2;;;14.6;82.6
68873;BME280;55907;50.806;12.882;2022-10-15T03:21:25;966.2;;;14.6;82.2
68873;BME280;55907;50.806;12.882;2022-10-15T03:27:28;966.0;;;14.6;83.2
68873;BME280;55907;50.806;12.882;2022-10-15T03:30:29;966.1;;;14.6;83.0
68873;BME280;55907;50.806;12.882;2022-10-15T03:33:31;966.0;;;14.6;83.9
68873;BME280;55907;50.806;12.882;2022-10-15T03:36:32;966.0;;;14.6;84.0
68873;BME280;55907;50.806;12.882;2022-10-15T03:39:34;966.0;;;14.5;83.4
68873;BME280;55907;50.806;12.882;2022-10-15T03:42:35;966.1;;;14.5;83.1
68873;BME280;55907;50.806;12.882;2022-10-15T03:45:37;966.1;;;14.5;82.8
68873;BME280;55907;50.806;12.882;2022-10-15T03:48:38;966.1;;;14.5;82.2
68873;BME280;55907;50.806;12.882;2022-10-15T03:51:40;966.1;;;14.5;82.2
68873;BME280;55907;50.806;12.882;2022-10-15T03:54:41;966.1;;;14.5;82.0
68873;BME280;55907;50.806;12.882;2022-10-15T03:57:43;966.1;;;14.5;81.7
68873;BME280;55907;50.806;12.882;2022-10-15T04:00:44;966.1;;;14.5;81.6
68873;BME280;55907;50.806;12.882;2022-10-15T04:03:46;966.1;;;14.6;81.4
68873;BME280;55907;50.806;12.882;2022-10-15T04:06:47;966.1;;;14.6;81.3
68873;BME280;55907;50.806;12.882;2022-10-15T04:09:48;966.1;;;14.6;81.1
68873;BME280;55907;50.806;12.882;2022-10-15T04:15:52;966.1;;;14.7;81.5
68873;BME280;55907;50.806;12.882;2022-10-15T04:18:53;966.1;;;14.7;81.7
68873;BME280;55907;50.806;12.882;2022-10-15T04:21:54;966.1;;;14.7;81.4
68873;BME280;55907;50.806;12.882;2022-10-15T04:24:56;966.1;;;14.7;81.9
68873;BME280;55907;50.806;12.882;2022-10-15T04:27:57;966.1;;;14.7;81.2
68873;BME280;55907;50.806;12.882;2022-10-15T04:31:00;966.1;;;14.7;81.2
68873;BME280;55907;50.806;12.882;2022-10-15T04:34:00;966.1;;;14.7;81.3
68873;BME280;55907;50.806;12.882;2022-10-15T04:37:02;966.2;;;14.7;81.5
68873;BME280;55907;50.806;12.882;2022-10-15T04:40:04;966.1;;;14.7;81.4
68873;BME280;55907;50.806;12.882;2022-10-15T04:43:05;966.1;;;14.6;81.5
68873;BME280;55907;50.806;12.882;2022-10-15T04:46:07;966.1;;;14.6;81.6
68873;BME280;55907;50.806;12.882;2022-10-15T04:49:08;966.2;;;14.6;81.4
68873;BME280;55907;50.806;12.882;2022-10-15T04:55:11;966.2;;;14.7;81.5
68873;BME280;55907;50.806;12.882;2022-10-15T04:58:12;966.2;;;14.8;81.2
68873;BME280;55907;50.806;12.882;2022-10-15T05:01:16;966.1;;;14.8;81.3
68873;BME280;55907;50.806;12.882;2022-10-15T05:04:15;966.1;;;14.9;81.6
68873;BME280;55907;50.806;12.882;2022-10-15T05:07:17;966.1;;;14.9;81.5
68873;BME280;55907;50.806;12.882;2022-10-15T05:10:18;966.1;;;14.8;81.7
68873;BME280;55907;50.806;12.882;2022-10-15T05:13:19;966.1;;;14.8;82.1
68873;BME280;55907;50.806;12.882;2022-10-15T05:19:22;966.2;;;14.9;81.6
68873;BME280;55907;50.806;12.882;2022-10-15T05:22:24;966.2;;;15.0;81.6
68873;BME280;55907;50.806;12.882;2022-10-15T05:25:25;966.2;;;15.0;81.4
68873;BME280;55907;50.806;12.882;2022-10-15T05:28:27;966.1;;;15.0;81.4
68873;BME280;55907;50.806;12.882;2022-10-15T05:31:29;966.2;;;15.0;81.6
68873;BME280;55907;50.806;12.882;2022-10-15T05:34:30;966.1;;;15.0;81.4
68873;BME280;55907;50.806;12.882;2022-10-15T05:37:31;966.1;;;15.0;81.4
68873;BME280;55907;50.806;12.882;2022-10-15T05:40:32;966.1;;;15.0;81.6
68873;BME280;55907;50.806;12.882;2022-10-15T05:43:34;966.2;;;15.0;81.8
68873;BME280;55907;50.806;12.882;2022-10-15T05:46:35;966.2;;;15.0;81.7
68873;BME280;55907;50.806;12.882;2022-10-15T05:49:37;966.2;;;15.0;81.6
68873;BME280;55907;50.806;12.882;2022-10-15T05:52:38;966.2;;;15.0;81.6
68873;BME280;55907;50.806;12.882;2022-10-15T05:55:40;966.2;;;15.1;81.4
68873;BME280;55907;50.806;12.882;2022-10-15T05:58:41;966.2;;;15.0;81.6
68873;BME280;55907;50.806;12.882;2022-10-15T06:01:43;966.1;;;15.1;82.2
68873;BME280;55907;50.806;12.882;2022-10-15T06:04:46;966.2;;;15.1;81.9
68873;BME280;55907;50.806;12.882;2022-10-15T06:07:46;966.2;;;15.1;82.2
68873;BME280;55907;50.806;12.882;2022-10-15T06:10:47;966.2;;;15.1;82.3
68873;BME280;55907;50.806;12.882;2022-10-15T06:13:48;966.2;;;15.2;82.0
68873;BME280;55907;50.806;12.882;2022-10-15T06:16:50;966.2;;;15.2;81.7
68873;BME280;55907;50.806;12.882;2022-10-15T06:19:51;966.2;;;15.2;81.9
68873;BME280;55907;50.806;12.882;2022-10-15T06:22:56;966.2;;;15.2;82.5
68873;BME280;55907;50.806;12.882;2022-10-15T06:25:54;966.3;;;15.2;82.5
68873;BME280;55907;50.806;12.882;2022-10-15T06:31:57;966.2;;;15.3;81.8
68873;BME280;55907;50.806;12.882;2022-10-15T06:34:59;966.2;;;15.4;81.4
68873;BME280;55907;50.806;12.882;2022-10-15T06:38:01;966.3;;;15.5;80.8
68873;BME280;55907;50.806;12.882;2022-10-15T06:41:02;966.4;;;15.6;80.4
68873;BME280;55907;50.806;12.882;2022-10-15T06:44:03;966.4;;;15.8;79.9
68873;BME280;55907;50.806;12.882;2022-10-15T06:47:05;966.4;;;15.9;79.2
68873;BME280;55907;50.806;12.882;2022-10-15T06:53:07;966.5;;;16.0;79.1
68873;BME280;55907;50.806;12.882;2022-10-15T06:56:09;966.5;;;16.0;78.9
68873;BME280;55907;50.806;12.882;2022-10-15T06:59:10;966.4;;;16.1;78.7
68873;BME280;55907;50.806;12.882;2022-10-15T07:02:12;966.4;;;16.2;78.1
68873;BME280;55907;50.806;12.882;2022-10-15T07:05:13;966.4;;;16.3;77.6
68873;BME280;55907;50.806;12.882;2022-10-15T07:08:14;966.5;;;16.3;77.8
68873;BME280;55907;50.806;12.882;2022-10-15T07:11:16;966.5;;;16.4;77.6
68873;BME280;55907;50.806;12.882;2022-10-15T07:14:17;966.5;;;16.5;77.4
68873;BME280;55907;50.806;12.882;2022-10-15T07:17:19;966.5;;;16.7;77.3
68873;BME280;55907;50.806;12.882;2022-10-15T07:20:20;966.5;;;16.8;76.1
68873;BME280;55907;50.806;12.882;2022-10-15T07:23:22;966.6;;;16.9;76.0
68873;BME280;55907;50.806;12.882;2022-10-15T07:26:23;966.6;;;16.9;76.0
68873;BME280;55907;50.806;12.882;2022-10-15T07:29:24;966.7;;;16.8;76.2
68873;BME280;55907;50.806;12.882;2022-10-15T07:32:26;966.8;;;16.8;76.5
68873;BME280;55907;50.806;12.882;2022-10-15T07:35:27;966.8;;;16.8;76.7
68873;BME280;55907;50.806;12.882;2022-10-15T07:38:29;966.8;;;16.8;76.8
68873;BME280;55907;50.806;12.882;2022-10-15T07:41:30;966.9;;;16.9;77.0
68873;BME280;55907;50.806;12.882;2022-10-15T07:44:32;966.9;;;17.0;77.1
68873;BME280;55907;50.806;12.882;2022-10-15T07:47:33;967.0;;;17.0;77.3
68873;BME280;55907;50.806;12.882;2022-10-15T07:50:34;967.0;;;17.0;77.3
68873;BME280;55907;50.806;12.882;2022-10-15T07:53:36;967.0;;;17.1;77.6
68873;BME280;55907;50.806;12.882;2022-10-15T07:56:37;967.0;;;17.1;77.8
68873;BME280;55907;50.806;12.882;2022-10-15T07:59:39;967.0;;;16.9;78.4
68873;BME280;55907;50.806;12.882;2022-10-15T08:02:40;967.0;;;16.7;79.7
68873;BME280;55907;50.806;12.882;2022-10-15T08:05:42;967.1;;;16.5;81.1
68873;BME280;55907;50.806;12.882;2022-10-15T08:08:43;967.1;;;16.3;82.2
68873;BME280;55907;50.806;12.882;2022-10-15T08:11:44;967.1;;;16.2;82.7
68873;BME280;55907;50.806;12.882;2022-10-15T08:14:46;967.1;;;16.3;83.6
68873;BME280;55907;50.806;12.882;2022-10-15T08:17:47;967.2;;;16.3;83.6
68873;BME280;55907;50.806;12.882;2022-10-15T08:20:49;967.2;;;16.4;83.7
68873;BME280;55907;50.806;12.882;2022-10-15T08:23:50;967.1;;;16.5;83.3
68873;BME280;55907;50.806;12.882;2022-10-15T08:26:52;967.2;;;16.4;83.7
68873;BME280;55907;50.806;12.882;2022-10-15T08:29:53;967.2;;;16.2;84.4
68873;BME280;55907;50.806;12.882;2022-10-15T08:32:55;967.2;;;16.1;85.4
68873;BME280;55907;50.806;12.882;2022-10-15T08:35:56;967.2;;;16.1;85.0
68873;BME280;55907;50.806;12.882;2022-10-15T08:38:57;967.3;;;16.2;84.6
68873;BME280;55907;50.806;12.882;2022-10-15T08:42:01;967.3;;;16.3;84.8
68873;BME280;55907;50.806;12.882;2022-10-15T08:45:03;967.4;;;16.3;85.7
68873;BME280;55907;50.806;12.882;2022-10-15T08:48:04;967.4;;;16.4;84.7
68873;BME280;55907;50.806;12.882;2022-10-15T08:51:07;967.5;;;16.5;84.9
68873;BME280;55907;50.806;12.882;2022-10-15T08:57:15;967.4;;;16.7;84.2
68873;BME280;55907;50.806;12.882;2022-10-15T09:00:13;967.5;;;16.6;84.8
68873;BME280;55907;50.806;12.882;2022-10-15T09:03:22;967.5;;;16.6;85.0
68873;BME280;55907;50.806;12.882;2022-10-15T09:06:13;967.5;;;16.6;85.7
68873;BME280;55907;50.806;12.882;2022-10-15T09:09:18;967.5;;;16.4;86.0
68873;BME280;55907;50.806;12.882;2022-10-15T09:12:20;967.5;;;16.2;87.2
68873;BME280;55907;50.806;12.882;2022-10-15T09:15:17;967.5;;;16.3;87.1
68873;BME280;55907;50.806;12.882;2022-10-15T09:18:21;967.6;;;16.4;86.5
68873;BME280;55907;50.806;12.882;2022-10-15T09:21:19;967.6;;;16.5;86.3
68873;BME280;55907;50.806;12.882;2022-10-15T09:24:21;967.7;;;16.7;85.9
68873;BME280;55907;50.806;12.882;2022-10-15T09:27:27;967.7;;;16.8;84.7
68873;BME280;55907;50.806;12.882;2022-10-15T09:30:31;967.8;;;16.8;84.9
68873;BME280;55907;50.806;12.882;2022-10-15T09:36:34;967.8;;;16.8;84.8
68873;BME280;55907;50.806;12.882;2022-10-15T09:39:39;967.9;;;16.8;85.1
68873;BME280;55907;50.806;12.882;2022-10-15T09:42:29;967.9;;;16.8;85.1
68873;BME280;55907;50.806;12.882;2022-10-15T09:45:29;968.0;;;16.8;84.7
68873;BME280;55907;50.806;12.882;2022-10-15T09:48:34;968.0;;;16.8;84.5
68873;BME280;55907;50.806;12.882;2022-10-15T09:51:34;968.0;;;16.8;85.2
68873;BME280;55907;50.806;12.882;2022-10-15T09:54:41;967.9;;;16.9;85.2
68873;BME280;55907;50.806;12.882;2022-10-15T09:57:36;968.0;;;16.9;85.0
68873;BME280;55907;50.806;12.882;2022-10-15T10:00:50;967.8;;;17.1;84.6
68873;BME280;55907;50.806;12.882;2022-10-15T10:03:37;967.9;;;17.3;83.4
68873;BME280;55907;50.806;12.882;2022-10-15T10:06:44;967.9;;;17.9;82.0
68873;BME280;55907;50.806;12.882;2022-10-15T10:09:48;967.9;;;18.9;78.7
68873;BME280;55907;50.806;12.882;2022-10-15T10:12:42;967.9;;;19.4;75.3
68873;BME280;55907;50.806;12.882;2022-10-15T10:15:44;968.0;;;19.3;74.8
68873;BME280;55907;50.806;12.882;2022-10-15T10:19:03;968.0;;;19.2;74.5
68873;BME280;55907;50.806;12.882;2022-10-15T10:21:46;967.9;;;19.3;75.1
68873;BME280;55907;50.806;12.882;2022-10-15T10:24:47;967.9;;;19.6;72.9
68873;BME280;55907;50.806;12.882;2022-10-15T10:27:49;968.0;;;19.8;72.3
68873;BME280;55907;50.806;12.882;2022-10-15T10:30:58;968.1;;;19.8;70.3
68873;BME280;55907;50.806;12.882;2022-10-15T10:36:53;968.1;;;19.6;71.2
68873;BME280;55907;50.806;12.882;2022-10-15T10:39:56;968.1;;;19.3;71.8
68873;BME280;55907;50.806;12.882;2022-10-15T10:43:09;968.1;;;19.0;72.6
68873;BME280;55907;50.806;12.882;2022-10-15T10:45:59;968.1;;;18.6;73.6
68873;BME280;55907;50.806;12.882;2022-10-15T10:48:58;968.1;;;18.6;73.5
68873;BME280;55907;50.806;12.882;2022-10-15T10:52:00;968.1;;;18.6;73.3
68873;BME280;55907;50.806;12.882;2022-10-15T10:55:04;968.2;;;18.6;74.1
68873;BME280;55907;50.806;12.882;2022-10-15T10:58:03;968.1;;;18.6;74.5
68873;BME280;55907;50.806;12.882;2022-10-15T11:01:04;968.1;;;18.9;73.0
68873;BME280;55907;50.806;12.882;2022-10-15T11:04:08;968.1;;;19.0;72.5
68873;BME280;55907;50.806;12.882;2022-10-15T11:07:12;968.1;;;19.1;71.3
68873;BME280;55907;50.806;12.882;2022-10-15T11:10:15;968.0;;;19.4;71.3
68873;BME280;55907;50.806;12.882;2022-10-15T11:13:25;968.1;;;19.1;70.7
68873;BME280;55907;50.806;12.882;2022-10-15T11:16:16;968.1;;;19.0;71.4
68873;BME280;55907;50.806;12.882;2022-10-15T11:19:20;968.0;;;18.9;72.6
68873;BME280;55907;50.806;12.882;2022-10-15T11:22:25;968.1;;;19.5;70.6
68873;BME280;55907;50.806;12.882;2022-10-15T11:25:21;968.1;;;19.4;70.4
68873;BME280;55907;50.806;12.882;2022-10-15T11:28:28;968.2;;;19.4;71.0
68873;BME280;55907;50.806;12.882;2022-10-15T11:31:25;968.1;;;19.3;71.7
68873;BME280;55907;50.806;12.882;2022-10-15T11:34:28;968.2;;;19.3;71.7
68873;BME280;55907;50.806;12.882;2022-10-15T11:37:31;968.2;;;19.2;72.3
68873;BME280;55907;50.806;12.882;2022-10-15T11:40:27;968.1;;;19.1;72.3
68873;BME280;55907;50.806;12.882;2022-10-15T11:43:31;968.1;;;19.0;72.7
68873;BME280;55907;50.806;12.882;2022-10-15T11:46:27;968.2;;;18.9;72.8
68873;BME280;55907;50.806;12.882;2022-10-15T11:49:37;968.2;;;18.7;73.4
68873;BME280;55907;50.806;12.882;2022-10-15T11:52:35;968.3;;;18.5;73.9
68873;BME280;55907;50.806;12.882;2022-10-15T11:55:34;968.2;;;18.5;74.3
68873;BME280;55907;50.806;12.882;2022-10-15T11:58:35;968.3;;;18.4;74.6
68873;BME280;55907;50.806;12.882;2022-10-15T12:01:37;968.3;;;18.4;74.9
68873;BME280;55907;50.806;12.882;2022-10-15T12:10:46;968.2;;;18.6;74.5
68873;BME280;55907;50.806;12.882;2022-10-15T12:13:43;968.2;;;19.2;73.1
68873;BME280;55907;50.806;12.882;2022-10-15T12:16:44;968.2;;;19.7;72.0
68873;BME280;55907;50.806;12.882;2022-10-15T12:19:44;968.2;;;19.8;70.5
68873;BME280;55907;50.806;12.882;2022-10-15T12:22:53;968.2;;;19.7;70.3
68873;BME280;55907;50.806;12.882;2022-10-15T12:25:44;968.2;;;19.7;70.4
68873;BME280;55907;50.806;12.882;2022-10-15T12:28:47;968.2;;;19.7;70.6
68873;BME280;55907;50.806;12.882;2022-10-15T12:31:48;968.2;;;19.7;70.6
68873;BME280;55907;50.806;12.882;2022-10-15T12:34:53;968.1;;;19.5;70.8
68873;BME280;55907;50.806;12.882;2022-10-15T12:37:50;968.1;;;19.4;71.1
68873;BME280;55907;50.806;12.882;2022-10-15T12:40:57;968.1;;;19.2;71.2
68873;BME280;55907;50.806;12.882;2022-10-15T12:44:04;968.1;;;19.1;71.5
68873;BME280;55907;50.806;12.882;2022-10-15T12:46:54;968.2;;;19.2;71.6
68873;BME280;55907;50.806;12.882;2022-10-15T12:50:00;968.1;;;19.4;70.7
68873;BME280;55907;50.806;12.882;2022-10-15T12:52:58;968.0;;;20.0;68.8
68873;BME280;55907;50.806;12.882;2022-10-15T12:56:11;968.0;;;20.7;66.4
68873;BME280;55907;50.806;12.882;2022-10-15T12:58:59;967.9;;;20.7;64.3
68873;BME280;55907;50.806;12.882;2022-10-15T13:02:01;967.9;;;20.6;64.2
68873;BME280;55907;50.806;12.882;2022-10-15T13:05:03;968.0;;;20.5;64.5
68873;BME280;55907;50.806;12.882;2022-10-15T13:08:11;967.9;;;20.6;64.4
68873;BME280;55907;50.806;12.882;2022-10-15T13:11:17;968.0;;;20.7;63.6
68873;BME280;55907;50.806;12.882;2022-10-15T13:14:15;968.0;;;20.6;63.3
68873;BME280;55907;50.806;12.882;2022-10-15T13:17:13;968.0;;;20.5;63.5
68873;BME280;55907;50.806;12.882;2022-10-15T13:20:26;968.1;;;20.4;63.2
68873;BME280;55907;50.806;12.882;2022-10-15T13:23:17;968.1;;;20.3;63.0
68873;BME280;55907;50.806;12.882;2022-10-15T13:29:15;968.1;;;19.8;64.2
68873;BME280;55907;50.806;12.882;2022-10-15T13:35:21;968.2;;;19.8;64.7
68873;BME280;55907;50.806;12.882;2022-10-15T13:38:20;968.2;;;19.8;64.6
68873;BME280;55907;50.806;12.882;2022-10-15T13:41:23;968.2;;;19.6;64.8
68873;BME280;55907;50.806;12.882;2022-10-15T13:44:21;968.2;;;19.6;64.9
68873;BME280;55907;50.806;12.882;2022-10-15T13:47:26;968.2;;;19.5;65.1
68873;BME280;55907;50.806;12.882;2022-10-15T13:50:25;968.2;;;19.4;65.0
68873;BME280;55907;50.806;12.882;2022-10-15T13:53:27;968.2;;;19.3;65.2
68873;BME280;55907;50.806;12.882;2022-10-15T13:56:28;968.1;;;19.1;65.7
68873;BME280;55907;50.806;12.882;2022-10-15T13:59:29;968.2;;;19.1;65.6
68873;BME280;55907;50.806;12.882;2022-10-15T14:02:28;968.2;;;19.2;65.5
68873;BME280;55907;50.806;12.882;2022-10-15T14:05:30;968.2;;;19.3;65.1
68873;BME280;55907;50.806;12.882;2022-10-15T14:08:33;968.2;;;19.5;64.3
68873;BME280;55907;50.806;12.882;2022-10-15T14:11:33;968.3;;;19.5;64.1
68873;BME280;55907;50.806;12.882;2022-10-15T14:14:37;968.4;;;19.4;64.4
68873;BME280;55907;50.806;12.882;2022-10-15T14:17:35;968.3;;;19.3;64.8
68873;BME280;55907;50.806;12.882;2022-10-15T14:20:42;968.4;;;19.2;65.2
68873;BME280;55907;50.806;12.882;2022-10-15T14:23:39;968.4;;;19.1;65.3
68873;BME280;55907;50.806;12.882;2022-10-15T14:26:40;968.4;;;19.1;65.6
68873;BME280;55907;50.806;12.882;2022-10-15T14:29:43;968.5;;;18.7;66.7
68873;BME280;55907;50.806;12.882;2022-10-15T14:32:45;968.4;;;18.6;67.1
68873;BME280;55907;50.806;12.882;2022-10-15T14:35:44;968.5;;;18.4;68.0
68873;BME280;55907;50.806;12.882;2022-10-15T14:38:45;968.5;;;18.4;68.2
68873;BME280;55907;50.806;12.882;2022-10-15T14:41:57;968.5;;;18.3;68.7
68873;BME280;55907;50.806;12.882;2022-10-15T14:44:48;968.5;;;18.3;69.0
68873;BME280;55907;50.806;12.882;2022-10-15T14:47:52;968.5;;;18.2;69.6
68873;BME280;55907;50.806;12.882;2022-10-15T14:50:51;968.5;;;18.2;69.5
68873;BME280;55907;50.806;12.882;2022-10-15T14:53:53;968.5;;;18.2;69.6
68873;BME280;55907;50.806;12.882;2022-10-15T14:56:54;968.5;;;18.2;69.8
68873;BME280;55907;50.806;12.882;2022-10-15T14:59:56;968.5;;;18.2;69.6
68873;BME280;55907;50.806;12.882;2022-10-15T15:02:58;968.5;;;18.1;69.9
68873;BME280;55907;50.806;12.882;2022-10-15T15:05:58;968.5;;;18.1;70.2
68873;BME280;55907;50.806;12.882;2022-10-15T15:08:59;968.6;;;18.1;70.4
68873;BME280;55907;50.806;12.882;2022-10-15T15:12:01;968.6;;;18.1;70.2
68873;BME280;55907;50.806;12.882;2022-10-15T15:15:03;968.6;;;18.0;70.4
68873;BME280;55907;50.806;12.882;2022-10-15T15:18:04;968.6;;;18.0;70.3
68873;BME280;55907;50.806;12.882;2022-10-15T15:21:12;968.7;;;18.0;70.4
68873;BME280;55907;50.806;12.882;2022-10-15T15:24:07;968.8;;;18.0;70.5
68873;BME280;55907;50.806;12.882;2022-10-15T15:27:19;968.8;;;18.0;70.1
68873;BME280;55907;50.806;12.882;2022-10-15T15:30:14;968.8;;;18.0;70.2
68873;BME280;55907;50.806;12.882;2022-10-15T15:33:13;968.9;;;17.9;70.3
68873;BME280;55907;50.806;12.882;2022-10-15T15:36:14;968.8;;;17.9;70.2
68873;BME280;55907;50.806;12.882;2022-10-15T15:39:14;968.8;;;17.9;70.3
68873;BME280;55907;50.806;12.882;2022-10-15T15:42:17;968.8;;;18.0;70.1
68873;BME280;55907;50.806;12.882;2022-10-15T15:45:19;968.8;;;18.0;70.3
68873;BME280;55907;50.806;12.882;2022-10-15T15:48:18;968.7;;;18.0;70.5
68873;BME280;55907;50.806;12.882;2022-10-15T15:51:21;968.8;;;18.0;70.4
68873;BME280;55907;50.806;12.882;2022-10-15T15:54:21;968.8;;;18.1;70.4
68873;BME280;55907;50.806;12.882;2022-10-15T15:57:22;968.8;;;18.0;70.5
68873;BME280;55907;50.806;12.882;2022-10-15T16:03:25;968.8;;;18.0;70.7
68873;BME280;55907;50.806;12.882;2022-10-15T16:06:27;968.8;;;17.9;70.9
68873;BME280;55907;50.806;12.882;2022-10-15T16:09:28;968.8;;;17.8;70.9
68873;BME280;55907;50.806;12.882;2022-10-15T16:12:29;968.9;;;17.8;71.2
68873;BME280;55907;50.806;12.882;2022-10-15T16:15:31;969.0;;;17.6;71.6
68873;BME280;55907;50.806;12.882;2022-10-15T16:18:32;969.1;;;17.5;72.0
68873;BME280;55907;50.806;12.882;2022-10-15T16:21:34;969.1;;;17.5;72.1
68873;BME280;55907;50.806;12.882;2022-10-15T16:24:35;969.0;;;17.5;72.2
68873;BME280;55907;50.806;12.882;2022-10-15T16:27:37;969.0;;;17.4;72.6
68873;BME280;55907;50.806;12.882;2022-10-15T16:30:38;969.1;;;17.4;72.5
68873;BME280;55907;50.806;12.882;2022-10-15T16:33:39;969.2;;;17.4;72.7
68873;BME280;55907;50.806;12.882;2022-10-15T16:36:41;969.2;;;17.3;73.0
68873;BME280;55907;50.806;12.882;2022-10-15T16:39:43;969.1;;;17.2;73.2
68873;BME280;55907;50.806;12.882;2022-10-15T16:42:44;969.1;;;17.1;73.6
68873;BME280;55907;50.806;12.882;2022-10-15T16:45:52;969.2;;;17.0;73.9
68873;BME280;55907;50.806;12.882;2022-10-15T16:48:51;969.2;;;17.0;74.5
68873;BME280;55907;50.806;12.882;2022-10-15T16:51:48;969.2;;;16.9;74.6
68873;BME280;55907;50.806;12.882;2022-10-15T16:54:50;969.3;;;16.8;75.4
68873;BME280;55907;50.806;12.882;2022-10-15T16:57:51;969.4;;;16.7;76.1
68873;BME280;55907;50.806;12.882;2022-10-15T17:00:52;969.4;;;16.7;76.3
68873;BME280;55907;50.806;12.882;2022-10-15T17:03:56;969.4;;;16.6;76.7
68873;BME280;55907;50.806;12.882;2022-10-15T17:06:55;969.4;;;16.5;76.8
68873;BME280;55907;50.806;12.882;2022-10-15T17:09:57;969.5;;;16.5;77.1
68873;BME280;55907;50.806;12.882;2022-10-15T17:12:58;969.5;;;16.5;77.3
68873;BME280;55907;50.806;12.882;2022-10-15T17:16:08;969.4;;;16.4;77.7
68873;BME280;55907;50.806;12.882;2022-10-15T17:19:02;969.4;;;16.4;77.7
68873;BME280;55907;50.806;12.882;2022-10-15T17:22:03;969.4;;;16.3;78.1
68873;BME280;55907;50.806;12.882;2022-10-15T17:28:06;969.4;;;16.2;78.4
68873;BME280;55907;50.806;12.882;2022-10-15T17:31:09;969.5;;;16.2;78.6
68873;BME280;55907;50.806;12.882;2022-10-15T17:34:10;969.6;;;16.1;78.7
68873;BME280;55907;50.806;12.882;2022-10-15T17:37:10;969.6;;;16.1;78.7
68873;BME280;55907;50.806;12.882;2022-10-15T17:40:12;969.6;;;16.2;78.6
68873;BME280;55907;50.806;12.882;2022-10-15T17:43:13;969.6;;;16.3;78.4
68873;BME280;55907;50.806;12.882;2022-10-15T17:46:16;969.6;;;16.3;78.3
68873;BME280;55907;50.806;12.882;2022-10-15T17:49:16;969.6;;;16.4;77.9
68873;BME280;55907;50.806;12.882;2022-10-15T17:52:17;969.6;;;16.4;77.9
68873;BME280;55907;50.806;12.882;2022-10-15T17:55:18;969.7;;;16.4;78.1
68873;BME280;55907;50.806;12.882;2022-10-15T18:01:23;969.7;;;16.4;77.7
68873;BME280;55907;50.806;12.882;2022-10-15T18:04:23;969.6;;;16.4;77.6